Time;durP1;ratioP1;P1;durP2;ratioP2;P2;SDS_P1;SDS_P2;PMS_P1;PMS_P2;Temp;Humidity;BMP_temperature;BMP_pressure;BME280_temperature;BME280_humidity;BME280_pressure;Samples;Min_cycle;Max_cycle;Signal;HPM_P1;HPM_P2
2023/09/13 00:01:32;;;;;;;13.52;9.75;;;;;;;19.01;100.00;100936.78;5028012;28;20068;-74
2023/09/13 00:03:58;;;;;;;14.82;9.30;;;;;;;18.97;100.00;100944.25;5014249;28;20110;-74
2023/09/13 00:06:24;;;;;;;13.82;8.93;;;;;;;18.98;100.00;100940.59;5029368;28;20038;-74
2023/09/13 00:08:50;;;;;;;13.43;8.80;;;;;;;18.98;100.00;100937.97;5027987;28;20512;-74
2023/09/13 00:11:16;;;;;;;11.27;8.02;;;;;;;19.00;100.00;100943.03;5014851;28;20034;-74
2023/09/13 00:13:42;;;;;;;12.82;8.68;;;;;;;19.00;100.00;100932.53;5014384;28;20029;-74
2023/09/13 00:16:08;;;;;;;12.85;8.55;;;;;;;19.00;100.00;100937.78;5028855;28;20417;-74
2023/09/13 00:18:34;;;;;;;12.95;8.30;;;;;;;18.99;100.00;100946.69;5016019;28;20037;-74
2023/09/13 00:21:00;;;;;;;12.40;9.07;;;;;;;18.97;100.00;100946.91;5014114;28;20026;-74
2023/09/13 00:23:25;;;;;;;12.85;8.90;;;;;;;18.93;100.00;100952.75;5030193;28;20017;-74
2023/09/13 00:25:51;;;;;;;15.35;9.00;;;;;;;18.91;100.00;100954.78;5009730;28;20022;-73
2023/09/13 00:28:17;;;;;;;12.77;7.82;;;;;;;18.91;100.00;100957.41;5008032;28;20662;-73
2023/09/13 00:30:42;;;;;;;13.07;8.13;;;;;;;18.87;100.00;100957.03;5032121;28;20038;-74
2023/09/13 00:33:08;;;;;;;15.43;9.48;;;;;;;18.86;100.00;100944.91;5026070;28;20081;-74
2023/09/13 00:35:35;;;;;;;20.38;10.32;;;;;;;18.82;100.00;100957.66;5027657;28;20029;-73
2023/09/13 00:38:00;;;;;;;17.23;10.38;;;;;;;18.83;100.00;100946.13;4990135;28;20034;-74
2023/09/13 00:40:26;;;;;;;20.52;9.95;;;;;;;18.81;100.00;100952.59;5014208;28;20496;-73
2023/09/13 00:42:53;;;;;;;15.00;9.35;;;;;;;18.79;100.00;100950.13;5011062;28;20040;-73
2023/09/13 00:45:19;;;;;;;16.15;9.60;;;;;;;18.77;100.00;100960.06;5027036;28;20037;-73
2023/09/13 00:47:46;;;;;;;22.85;10.57;;;;;;;18.77;100.00;100954.78;5015573;28;20030;-73
2023/09/13 00:50:14;;;;;;;16.00;8.98;;;;;;;18.75;100.00;100956.81;5011701;28;20044;-74
2023/09/13 00:52:41;;;;;;;17.52;10.73;;;;;;;18.75;100.00;100962.06;5027117;28;20466;-73
2023/09/13 00:55:09;;;;;;;26.85;13.90;;;;;;;18.72;100.00;100957.22;5013369;28;20026;-73
2023/09/13 00:57:35;;;;;;;22.98;12.38;;;;;;;18.77;100.00;100967.13;5011376;28;20041;-73
2023/09/13 01:00:09;;;;;;;21.73;11.70;;;;;;;18.70;100.00;100966.34;5012836;28;20033;-74
2023/09/13 01:02:38;;;;;;;24.58;13.55;;;;;;;18.65;100.00;100961.72;5019177;28;20037;-73
2023/09/13 01:05:13;;;;;;;29.42;15.88;;;;;;;18.69;100.00;100968.16;5013806;28;20041;-74
2023/09/13 01:07:40;;;;;;;31.58;16.48;;;;;;;18.67;100.00;100970.19;5007440;28;20030;-73
2023/09/13 01:10:07;;;;;;;28.15;15.13;;;;;;;18.64;100.00;100976.63;5013084;28;20044;-73
2023/09/13 01:12:33;;;;;;;40.28;19.80;;;;;;;18.68;100.00;100970.00;5019126;28;20125;-73
2023/09/13 01:15:01;;;;;;;36.13;18.00;;;;;;;18.64;100.00;100967.97;5009440;28;20034;-74
2023/09/13 01:17:37;;;;;;;40.00;20.50;;;;;;;18.65;100.00;100970.38;5014124;28;20041;-74
2023/09/13 01:20:10;;;;;;;42.42;19.92;;;;;;;18.66;100.00;100981.69;5021479;28;20030;-73
2023/09/13 01:22:57;;;;;;;51.28;22.45;;;;;;;18.70;100.00;100980.25;5015215;28;20041;-74
2023/09/13 01:25:47;;;;;;;36.30;18.52;;;;;;;18.68;100.00;100982.28;5019358;28;20032;-74
2023/09/13 01:28:36;;;;;;;52.58;22.33;;;;;;;18.67;100.00;100984.13;5014239;28;20057;-73
2023/09/13 01:31:07;;;;;;;59.03;25.48;;;;;;;18.70;100.00;100974.22;4995397;28;20037;-74
2023/09/13 01:33:33;;;;;;;48.20;23.10;;;;;;;18.70;100.00;100969.75;5014291;28;20029;-73
2023/09/13 01:36:00;;;;;;;44.70;20.92;;;;;;;18.69;100.00;100978.66;5016971;28;20099;-73
2023/09/13 01:38:26;;;;;;;51.47;24.73;;;;;;;18.72;100.00;100980.06;5012604;28;20038;-74
2023/09/13 01:41:07;;;;;;;44.90;22.88;;;;;;;18.70;100.00;100974.22;4994566;28;20029;-73
2023/09/13 01:43:34;;;;;;;51.72;24.73;;;;;;;18.72;100.00;100980.88;5030382;28;20403;-74
2023/09/13 01:46:03;;;;;;;48.85;24.85;;;;;;;18.64;100.00;100989.78;5012481;28;20032;-73
2023/09/13 01:48:29;;;;;;;57.17;27.13;;;;;;;18.62;100.00;100985.75;4997462;28;20886;-73
2023/09/13 01:50:55;;;;;;;58.88;28.70;;;;;;;18.65;100.00;100996.66;5012338;28;20033;-73
2023/09/13 01:53:21;;;;;;;55.10;27.02;;;;;;;18.62;100.00;100996.25;5010639;28;20026;-73
2023/09/13 01:55:46;;;;;;;54.83;25.83;;;;;;;18.61;100.00;101003.31;5013431;28;20030;-74
2023/09/13 01:58:12;;;;;;;49.95;24.58;;;;;;;18.55;100.00;100996.25;5010811;28;20066;-73
2023/09/13 02:00:39;;;;;;;56.03;24.80;;;;;;;18.54;100.00;100999.91;5014128;28;20040;-73
2023/09/13 02:03:05;;;;;;;54.63;25.23;;;;;;;18.56;100.00;100995.25;5007999;28;20107;-73
2023/09/13 02:05:31;;;;;;;48.67;24.88;;;;;;;18.55;100.00;100992.81;5010714;28;20038;-72
2023/09/13 02:07:56;;;;;;;58.45;29.70;;;;;;;18.53;100.00;100995.66;5012438;28;20483;-73
2023/09/13 02:10:22;;;;;;;58.25;28.50;;;;;;;18.49;100.00;100997.88;5012118;28;20037;-73
2023/09/13 02:12:48;;;;;;;56.33;28.50;;;;;;;18.49;100.00;100994.44;5011448;28;20037;-73
2023/09/13 02:15:13;;;;;;;47.88;23.85;;;;;;;18.47;100.00;100993.84;5014409;28;20384;-73
2023/09/13 02:17:39;;;;;;;53.58;25.23;;;;;;;18.46;100.00;101003.53;5009312;28;20038;-72
2023/09/13 02:20:05;;;;;;;57.85;27.30;;;;;;;18.47;100.00;100997.25;5011590;28;20038;-73
2023/09/13 02:22:31;;;;;;;51.60;25.90;;;;;;;18.52;100.00;101009.00;4997444;28;20048;-72
2023/09/13 02:24:57;;;;;;;46.70;24.65;;;;;;;18.51;100.00;101013.41;5012933;28;20022;-73
2023/09/13 02:27:23;;;;;;;53.17;25.20;;;;;;;18.49;100.00;101024.13;5012114;28;20468;-73
2023/09/13 02:29:48;;;;;;;60.55;29.98;;;;;;;18.56;100.00;101025.97;5007954;28;20022;-73
2023/09/13 02:32:14;;;;;;;49.30;25.75;;;;;;;18.49;100.00;101029.38;5008405;28;20037;-73
2023/09/13 02:34:43;;;;;;;50.38;26.17;;;;;;;18.48;100.00;101032.22;5017150;28;20025;-73
2023/09/13 02:37:09;;;;;;;55.97;25.13;;;;;;;18.48;100.00;101029.59;5014638;28;20046;-73
2023/09/13 02:39:36;;;;;;;54.33;25.23;;;;;;;18.46;100.00;101029.78;4994233;28;20120;-73
2023/09/13 02:42:03;;;;;;;48.53;23.90;;;;;;;18.46;100.00;101032.41;5013249;28;20434;-73
2023/09/13 02:44:30;;;;;;;62.05;28.95;;;;;;;18.53;100.00;101032.41;5014428;28;20119;-73
2023/09/13 02:46:56;;;;;;;55.75;26.10;;;;;;;18.48;100.00;101027.78;5005794;28;20042;-73
2023/09/13 02:49:22;;;;;;;58.90;28.00;;;;;;;18.52;100.00;101024.75;5009538;28;20496;-72
2023/09/13 02:51:48;;;;;;;59.63;27.40;;;;;;;18.52;100.00;101019.50;5011918;28;20040;-73
2023/09/13 02:54:14;;;;;;;59.38;28.00;;;;;;;18.49;100.00;101024.13;5012116;28;20068;-73
2023/09/13 02:56:40;;;;;;;62.40;28.08;;;;;;;18.44;100.00;101025.72;5016606;28;20657;-72
2023/09/13 02:59:06;;;;;;;56.88;27.77;;;;;;;18.40;100.00;101016.66;5010502;28;20103;-73
2023/09/13 03:01:31;;;;;;;66.13;31.35;;;;;;;18.42;100.00;101009.38;5010422;28;20520;-73
2023/09/13 03:03:57;;;;;;;68.55;31.00;;;;;;;18.42;100.00;101012.84;5011885;28;20088;-73
2023/09/13 03:06:23;;;;;;;63.15;30.48;;;;;;;18.41;100.00;101020.91;5010117;28;20510;-73
2023/09/13 03:08:49;;;;;;;71.43;31.88;;;;;;;18.39;100.00;101015.84;4992706;28;20558;-73
2023/09/13 03:11:16;;;;;;;60.08;27.65;;;;;;;18.41;100.00;101020.91;5012587;28;20691;-73
2023/09/13 03:13:43;;;;;;;66.07;32.30;;;;;;;18.42;100.00;101027.75;4993745;28;20612;-73
2023/09/13 03:16:18;;;;;;;57.10;26.95;;;;;;;18.41;100.00;101029.59;4989224;28;20045;-73
2023/09/13 03:18:46;;;;;;;76.05;33.60;;;;;;;18.40;100.00;101029.78;5027449;28;20140;-73
2023/09/13 03:21:15;;;;;;;76.68;34.40;;;;;;;18.40;100.00;101035.03;5010342;28;20107;-73
2023/09/13 03:23:44;;;;;;;78.00;35.00;;;;;;;18.42;100.00;101030.38;5027047;28;20116;-73
2023/09/13 03:26:14;;;;;;;83.15;36.58;;;;;;;18.46;100.00;101031.63;5008652;28;20060;-73
2023/09/13 03:28:42;;;;;;;78.55;35.30;;;;;;;18.46;100.00;101039.50;5010131;28;20039;-73
2023/09/13 03:31:12;;;;;;;85.90;38.78;;;;;;;18.44;100.00;101031.81;5011658;28;20068;-73
2023/09/13 03:33:39;;;;;;;91.22;38.70;;;;;;;18.51;100.00;101031.00;5022385;28;20096;-72
2023/09/13 03:36:11;;;;;;;85.15;36.72;;;;;;;18.45;100.00;101037.88;5010369;28;21705;-73
2023/09/13 03:38:39;;;;;;;82.80;36.95;;;;;;;18.44;100.00;101041.50;5011412;28;20029;-73
2023/09/13 03:41:07;;;;;;;90.75;39.55;;;;;;;18.38;100.00;101040.47;5020968;28;20034;-73
2023/09/13 03:43:34;;;;;;;93.20;40.13;;;;;;;18.37;100.00;101040.69;5011652;28;20507;-73
2023/09/13 03:46:01;;;;;;;85.35;37.30;;;;;;;18.37;100.00;101043.31;5013590;28;20065;-73
2023/09/13 03:48:32;;;;;;;95.80;40.08;;;;;;;18.31;100.00;101039.69;5007817;28;20400;-73
2023/09/13 03:50:58;;;;;;;79.35;35.75;;;;;;;18.31;100.00;101036.25;5009449;28;20086;-74
2023/09/13 03:53:24;;;;;;;84.88;37.63;;;;;;;18.30;100.00;101030.19;5011011;28;20031;-73
2023/09/13 03:55:54;;;;;;;80.97;37.05;;;;;;;18.29;100.00;101034.63;5011290;28;20030;-73
2023/09/13 03:58:21;;;;;;;76.95;33.45;;;;;;;18.25;100.00;101033.44;5028513;28;20144;-73
2023/09/13 04:00:47;;;;;;;82.78;36.85;;;;;;;18.26;100.00;101036.84;5023383;28;20107;-75
2023/09/13 04:03:15;;;;;;;81.47;34.83;;;;;;;18.22;100.00;101043.53;5012192;28;20038;-73
2023/09/13 04:05:41;;;;;;;86.75;36.03;;;;;;;18.23;100.00;101042.50;5009835;28;20030;-73
2023/09/13 04:08:06;;;;;;;90.65;37.65;;;;;;;18.21;100.00;101042.69;5007848;28;20140;-73
2023/09/13 04:10:32;;;;;;;89.88;37.22;;;;;;;18.23;100.00;101035.44;5011462;28;20425;-73
2023/09/13 04:12:58;;;;;;;86.13;38.10;;;;;;;18.23;100.00;101037.25;5008720;28;20618;-73
2023/09/13 04:15:23;;;;;;;76.65;33.50;;;;;;;18.20;100.00;101045.53;5010634;28;20037;-73
2023/09/13 04:17:50;;;;;;;84.57;40.72;;;;;;;18.20;100.00;101054.22;5005364;28;20034;-73
2023/09/13 04:20:16;;;;;;;92.22;38.47;;;;;;;18.18;100.00;101052.81;5013039;28;20033;-73
2023/09/13 04:22:42;;;;;;;91.30;41.25;;;;;;;18.21;100.00;101057.63;5010448;28;20108;-73
2023/09/13 04:25:08;;;;;;;102.03;41.58;;;;;;;18.20;100.00;101056.84;5025202;28;20492;-73
2023/09/13 04:27:34;;;;;;;92.35;40.97;;;;;;;18.20;100.00;101053.41;5009111;28;20049;-72
2023/09/13 04:30:00;;;;;;;97.20;44.45;;;;;;;18.19;100.00;101051.78;5011811;28;20030;-73
2023/09/13 04:32:27;;;;;;;96.63;42.13;;;;;;;18.22;100.00;101054.00;5008076;28;20064;-72
2023/09/13 04:34:53;;;;;;;100.07;43.40;;;;;;;18.20;100.00;101056.03;5014022;28;20025;-73
2023/09/13 04:37:20;;;;;;;95.50;43.88;;;;;;;18.26;100.00;101060.47;5008634;28;20036;-73
2023/09/13 04:39:46;;;;;;;107.43;44.55;;;;;;;18.21;100.00;101055.00;5014539;28;20181;-73
2023/09/13 04:42:12;;;;;;;107.25;44.83;;;;;;;18.17;100.00;101059.03;5009413;28;20038;-73
2023/09/13 04:44:38;;;;;;;99.90;43.13;;;;;;;18.12;100.00;101051.78;5005663;28;20088;-73
2023/09/13 04:47:04;;;;;;;95.85;42.47;;;;;;;18.12;100.00;101056.22;5007560;28;20029;-73
2023/09/13 04:49:30;;;;;;;109.63;47.10;;;;;;;18.19;100.00;101057.03;5012265;28;20530;-73
2023/09/13 04:51:57;;;;;;;102.60;44.28;;;;;;;18.16;100.00;101053.00;5006129;28;20119;-72
2023/09/13 04:54:23;;;;;;;88.18;39.58;;;;;;;18.14;100.00;101057.63;5013147;28;21200;-73
2023/09/13 04:56:49;;;;;;;79.40;38.92;;;;;;;18.15;100.00;101059.25;5023172;28;20038;-73
2023/09/13 04:59:15;;;;;;;93.35;41.17;;;;;;;18.16;100.00;101066.13;5010597;28;20034;-73
2023/09/13 05:01:41;;;;;;;71.85;33.72;;;;;;;18.11;100.00;101072.97;5012677;28;20026;-73
2023/09/13 05:04:07;;;;;;;88.30;40.90;;;;;;;18.06;100.00;101070.94;5024261;28;20503;-72
2023/09/13 05:06:32;;;;;;;74.40;35.17;;;;;;;18.06;100.00;101073.56;5008582;28;20038;-72
2023/09/13 05:08:58;;;;;;;82.47;37.72;;;;;;;18.02;100.00;101081.00;5010697;28;20069;-72
2023/09/13 05:11:24;;;;;;;88.35;39.28;;;;;;;18.01;100.00;101086.47;5012663;28;20055;-73
2023/09/13 05:13:50;;;;;;;86.47;39.80;;;;;;;17.97;100.00;101090.47;5009372;28;20026;-73
2023/09/13 05:16:20;;;;;;;82.97;39.92;;;;;;;18.06;100.00;101086.66;5005854;28;20037;-73
2023/09/13 05:18:46;;;;;;;83.35;39.55;;;;;;;18.06;100.00;101087.50;5011682;28;20104;-72
2023/09/13 05:21:12;;;;;;;82.53;36.75;;;;;;;18.01;100.00;101089.09;5010473;28;20044;-73
2023/09/13 05:23:38;;;;;;;92.80;40.92;;;;;;;17.99;100.00;101088.47;5011476;28;20026;-72
2023/09/13 05:26:03;;;;;;;92.25;42.88;;;;;;;18.05;100.00;101099.00;5012571;28;20029;-73
2023/09/13 05:28:33;;;;;;;82.45;38.08;;;;;;;18.01;100.00;101097.78;5025827;28;20383;-73
2023/09/13 05:31:05;;;;;;;86.38;40.28;;;;;;;17.99;100.00;101099.78;5020119;28;20045;-73
2023/09/13 05:33:31;;;;;;;86.78;38.33;;;;;;;18.01;100.00;101107.47;5026384;28;20034;-72
2023/09/13 05:35:56;;;;;;;89.00;40.85;;;;;;;17.97;100.00;101106.22;5008663;28;20046;-72
2023/09/13 05:38:22;;;;;;;92.85;39.10;;;;;;;17.97;100.00;101106.22;5010617;28;20032;-73
2023/09/13 05:40:48;;;;;;;90.95;39.22;;;;;;;17.96;100.00;101112.47;5009815;28;20391;-72
2023/09/13 05:43:13;;;;;;;86.25;39.08;;;;;;;17.99;100.00;101122.56;5010659;28;20042;-73
2023/09/13 05:45:42;;;;;;;88.57;40.42;;;;;;;17.99;100.00;101120.78;5010109;28;20405;-72
2023/09/13 05:48:07;;;;;;;72.85;35.35;;;;;;;17.97;100.00;101125.41;5008243;28;20034;-73
2023/09/13 05:50:33;;;;;;;85.38;38.38;;;;;;;18.04;100.00;101126.22;4993946;28;20079;-73
2023/09/13 05:52:59;;;;;;;87.15;37.17;;;;;;;18.07;100.00;101123.22;5008361;28;20120;-72
2023/09/13 05:55:25;;;;;;;83.78;38.25;;;;;;;18.10;100.00;101129.88;5008809;28;20034;-72
2023/09/13 05:57:51;;;;;;;79.00;35.83;;;;;;;17.98;100.00;101127.00;5007670;28;20026;-72
2023/09/13 06:00:17;;;;;;;85.72;38.60;;;;;;;17.94;100.00;101132.88;5013771;28;20030;-72
2023/09/13 06:02:42;;;;;;;85.45;38.45;;;;;;;17.97;100.00;101132.44;5011029;28;20328;-72
2023/09/13 06:05:09;;;;;;;75.75;33.83;;;;;;;17.94;100.00;101140.72;5009330;28;20034;-72
2023/09/13 06:07:36;;;;;;;77.78;35.95;;;;;;;17.94;100.00;101138.91;5030647;28;20308;-73
2023/09/13 06:10:04;;;;;;;87.63;37.58;;;;;;;18.00;100.00;101143.38;5014760;28;20230;-72
2023/09/13 06:12:31;;;;;;;71.88;34.75;;;;;;;17.95;100.00;101145.78;5009530;28;20042;-72
2023/09/13 06:14:59;;;;;;;67.75;31.20;;;;;;;17.94;100.00;101148.59;5011474;28;20057;-72
2023/09/13 06:17:24;;;;;;;76.32;35.33;;;;;;;17.99;100.00;101146.19;5010928;28;20077;-73
2023/09/13 06:19:51;;;;;;;76.53;34.45;;;;;;;18.00;100.00;101143.38;5011896;28;20040;-72
2023/09/13 06:22:17;;;;;;;80.25;35.30;;;;;;;17.92;100.00;101150.63;5009135;28;20118;-72
2023/09/13 06:24:44;;;;;;;72.90;32.92;;;;;;;17.86;100.00;101154.81;5013631;28;20033;-72
2023/09/13 06:27:09;;;;;;;73.55;32.45;;;;;;;17.91;100.00;101147.16;5011169;28;20038;-72
2023/09/13 06:29:35;;;;;;;74.63;33.13;;;;;;;18.04;100.00;101149.03;5012674;28;20079;-72
2023/09/13 06:32:02;;;;;;;65.95;33.97;;;;;;;18.01;100.00;101146.81;5011282;28;20041;-72
2023/09/13 06:34:28;;;;;;;70.00;33.22;;;;;;;18.00;100.00;101150.44;5007987;28;20038;-72
2023/09/13 06:36:55;;;;;;;70.18;33.28;;;;;;;18.03;100.00;101148.22;5010822;28;20431;-72
2023/09/13 06:39:21;;;;;;;72.85;34.22;;;;;;;18.08;100.00;101140.59;5014005;28;20079;-72
2023/09/13 06:41:47;;;;;;;70.45;31.17;;;;;;;18.19;100.00;101154.94;5010705;28;20072;-72
2023/09/13 06:44:13;;;;;;;72.13;34.17;;;;;;;18.32;100.00;101143.66;5011101;28;20535;-72
2023/09/13 06:46:41;;;;;;;70.13;34.08;;;;;;;18.28;100.00;101155.56;5008163;28;20066;-73
2023/09/13 06:49:06;;;;;;;77.60;35.95;;;;;;;18.24;100.00;101147.28;5012115;28;20056;-73
2023/09/13 06:51:32;;;;;;;64.20;32.40;;;;;;;18.22;100.00;101153.75;5008338;28;20030;-73
2023/09/13 06:53:58;;;;;;;76.88;34.55;;;;;;;18.38;100.00;101152.56;5015334;28;20030;-72
2023/09/13 06:56:24;;;;;;;64.07;33.03;;;;;;;18.53;100.00;101160.25;5008796;28;20041;-73
2023/09/13 06:58:49;;;;;;;61.10;31.77;;;;;;;18.89;100.00;101166.97;5011151;28;20029;-73
2023/09/13 07:01:15;;;;;;;60.72;30.42;;;;;;;19.16;100.00;101162.53;5012613;28;20455;-73
2023/09/13 07:03:40;;;;;;;55.60;29.45;;;;;;;19.45;100.00;101169.94;5025377;28;20041;-72
2023/09/13 07:06:06;;;;;;;55.80;30.73;;;;;;;19.67;100.00;101172.34;5023410;28;20071;-73
2023/09/13 07:08:32;;;;;;;59.25;29.33;;;;;;;19.98;100.00;101163.72;5011028;28;20675;-72
2023/09/13 07:10:57;;;;;;;52.50;27.75;;;;;;;20.33;100.00;101165.19;5010289;28;20041;-73
2023/09/13 07:13:23;;;;;;;49.35;28.17;;;;;;;20.63;100.00;101165.44;5009949;28;20021;-72
2023/09/13 07:15:49;;;;;;;44.80;25.63;;;;;;;21.17;98.70;101173.69;5008402;28;20076;-73
2023/09/13 07:18:15;;;;;;;45.70;24.38;;;;;;;21.74;94.40;101163.00;5011167;28;20041;-72
2023/09/13 07:20:41;;;;;;;48.90;25.50;;;;;;;21.90;92.26;101166.84;5009320;28;21372;-72
2023/09/13 07:23:06;;;;;;;36.15;21.67;;;;;;;22.18;91.13;101161.00;5009128;28;20067;-72
2023/09/13 07:25:32;;;;;;;46.67;23.85;;;;;;;22.52;88.01;101166.63;5010902;28;20109;-72
2023/09/13 07:27:59;;;;;;;43.90;24.02;;;;;;;22.48;86.49;101160.19;5008924;28;20507;-72
2023/09/13 07:30:26;;;;;;;38.88;20.45;;;;;;;22.84;84.97;101155.78;5009918;28;20033;-72
2023/09/13 07:32:51;;;;;;;37.20;21.23;;;;;;;22.93;85.41;101159.69;5010849;28;20037;-72
2023/09/13 07:35:17;;;;;;;36.33;19.83;;;;;;;22.94;84.01;101164.75;5010868;28;20088;-72
2023/09/13 07:37:43;;;;;;;31.50;19.98;;;;;;;23.15;83.67;101169.69;5009632;28;20064;-72
2023/09/13 07:40:10;;;;;;;27.38;17.10;;;;;;;23.29;83.06;101173.72;5010861;28;20667;-71
2023/09/13 07:42:35;;;;;;;32.83;18.48;;;;;;;23.25;82.52;101180.53;5007407;28;20029;-72
2023/09/13 07:45:01;;;;;;;30.45;17.75;;;;;;;23.45;81.35;101185.44;5010109;28;20088;-72
2023/09/13 07:47:28;;;;;;;29.58;17.27;;;;;;;23.39;79.80;101187.16;5006214;28;20088;-72
2023/09/13 07:49:55;;;;;;;27.80;16.23;;;;;;;23.57;80.20;101188.88;5009331;28;20044;-72
2023/09/13 07:52:20;;;;;;;25.23;15.40;;;;;;;23.24;81.14;101195.56;5010365;28;20111;-72
2023/09/13 07:54:46;;;;;;;26.25;16.05;;;;;;;22.73;83.50;101197.00;5009331;28;20074;-72
2023/09/13 07:57:12;;;;;;;31.98;18.77;;;;;;;21.74;87.51;101207.84;5010612;28;20046;-72
2023/09/13 07:59:38;;;;;;;33.20;18.38;;;;;;;21.29;90.66;101210.72;5011596;28;20033;-73
2023/09/13 08:02:04;;;;;;;33.60;17.05;;;;;;;20.91;93.35;101219.56;5007813;28;20045;-72
2023/09/13 08:04:29;;;;;;;30.15;16.35;;;;;;;20.64;95.61;101227.63;5012166;28;20101;-71
2023/09/13 08:06:55;;;;;;;34.70;17.70;;;;;;;20.51;97.02;101230.31;5007410;28;20068;-72
2023/09/13 08:09:21;;;;;;;28.23;15.63;;;;;;;20.38;98.16;101231.19;5008267;28;20064;-71
2023/09/13 08:11:47;;;;;;;33.22;18.17;;;;;;;20.21;99.94;101238.75;5014738;28;21349;-72
2023/09/13 08:14:13;;;;;;;28.17;17.23;;;;;;;20.19;100.00;101240.78;5007544;28;20045;-71
2023/09/13 08:16:39;;;;;;;32.17;15.48;;;;;;;20.17;100.00;101242.81;5009808;28;20116;-71
2023/09/13 08:19:04;;;;;;;29.20;17.55;;;;;;;20.12;100.00;101253.19;5010206;28;20037;-72
2023/09/13 08:21:30;;;;;;;38.63;19.88;;;;;;;19.83;100.00;101245.59;5010616;28;20084;-71
2023/09/13 08:23:56;;;;;;;32.92;18.58;;;;;;;20.05;100.00;101255.03;5013921;28;20068;-71
2023/09/13 08:26:21;;;;;;;29.48;16.90;;;;;;;19.98;100.00;101265.56;5011473;28;20426;-72
2023/09/13 08:28:47;;;;;;;35.30;17.75;;;;;;;19.95;100.00;101258.91;5012961;28;20053;-72
2023/09/13 08:31:13;;;;;;;29.67;17.80;;;;;;;19.82;100.00;101258.94;5009348;28;20049;-72
2023/09/13 08:33:38;;;;;;;38.58;19.63;;;;;;;19.91;100.00;101262.13;5011123;28;20096;-71
2023/09/13 08:36:04;;;;;;;26.05;15.93;;;;;;;19.96;100.00;101260.50;5008219;28;20072;-71
2023/09/13 08:38:30;;;;;;;39.63;20.02;;;;;;;19.91;100.00;101262.13;5013366;28;20029;-72
2023/09/13 08:40:56;;;;;;;32.67;18.15;;;;;;;19.80;100.00;101268.88;5010051;28;20098;-72
2023/09/13 08:43:23;;;;;;;32.15;17.25;;;;;;;19.74;100.00;101273.13;5008381;28;20041;-72
2023/09/13 08:45:50;;;;;;;32.50;18.08;;;;;;;19.74;100.00;101277.56;5009176;28;20038;-72
2023/09/13 08:48:18;;;;;;;37.45;18.63;;;;;;;19.68;100.00;101281.00;5013124;28;20113;-72
2023/09/13 08:50:46;;;;;;;34.55;17.50;;;;;;;19.65;100.00;101276.94;5010241;28;20034;-71
2023/09/13 08:53:13;;;;;;;32.15;15.40;;;;;;;19.76;100.00;101286.06;5011509;28;20042;-71
2023/09/13 08:55:40;;;;;;;34.50;17.38;;;;;;;19.77;100.00;101285.84;5012369;28;20052;-71
2023/09/13 08:58:05;;;;;;;33.92;18.15;;;;;;;19.88;100.00;101286.25;5006493;28;20403;-71
2023/09/13 09:00:39;;;;;;;29.58;16.65;;;;;;;19.82;100.00;101296.56;5008291;28;20037;-72
2023/09/13 09:03:06;;;;;;;26.25;15.65;;;;;;;19.80;100.00;101293.34;5022458;28;20033;-71
2023/09/13 09:05:32;;;;;;;28.45;14.88;;;;;;;19.92;100.00;101288.25;5006887;28;20072;-71
2023/09/13 09:07:59;;;;;;;30.15;15.10;;;;;;;20.02;100.00;101293.91;5007102;28;20398;-71
2023/09/13 09:10:25;;;;;;;33.03;17.92;;;;;;;20.23;100.00;101284.94;5013048;28;20045;-71
2023/09/13 09:12:55;;;;;;;34.42;19.25;;;;;;;20.46;100.00;101288.09;5005652;28;20038;-72
2023/09/13 09:15:23;;;;;;;30.80;16.35;;;;;;;20.70;98.21;101291.81;5013458;28;20076;-72
2023/09/13 09:17:50;;;;;;;26.02;15.07;;;;;;;20.79;97.73;101301.09;5011251;28;20559;-71
2023/09/13 09:20:18;;;;;;;28.77;15.55;;;;;;;20.76;98.93;101302.34;5008564;28;20181;-71
2023/09/13 09:22:44;;;;;;;28.85;16.33;;;;;;;20.84;98.87;101297.84;5008499;28;20049;-71
2023/09/13 09:25:11;;;;;;;32.05;14.98;;;;;;;20.94;99.50;101298.97;5009229;28;20037;-71
2023/09/13 09:27:38;;;;;;;24.05;13.27;;;;;;;20.91;98.41;101309.16;5008293;28;20030;-71
2023/09/13 09:30:07;;;;;;;28.83;15.15;;;;;;;20.83;97.46;101297.03;5012338;28;20087;-71
2023/09/13 09:32:38;;;;;;;28.45;15.60;;;;;;;20.85;99.33;101310.81;5006412;28;20034;-71
2023/09/13 09:35:07;;;;;;;30.88;15.05;;;;;;;20.75;98.45;101305.19;5011123;28;20389;-71
2023/09/13 09:37:34;;;;;;;31.85;15.35;;;;;;;20.67;98.94;101308.06;5011394;28;20041;-71
2023/09/13 09:40:09;;;;;;;27.42;14.20;;;;;;;20.64;100.00;101311.91;5013821;28;20554;-71
2023/09/13 09:42:36;;;;;;;27.05;13.30;;;;;;;20.77;100.00;101313.69;5008983;28;20033;-72
2023/09/13 09:45:02;;;;;;;31.48;14.88;;;;;;;21.14;96.34;101309.41;5010889;28;21334;-71
2023/09/13 09:47:28;;;;;;;28.67;14.40;;;;;;;21.22;93.95;101312.81;5013149;28;20153;-71
2023/09/13 09:49:54;;;;;;;28.23;13.13;;;;;;;21.53;94.99;101312.78;5011895;28;20602;-71
2023/09/13 09:52:20;;;;;;;23.48;13.10;;;;;;;21.66;93.56;101306.59;5012048;28;20073;-71
2023/09/13 09:54:51;;;;;;;19.02;12.13;;;;;;;21.61;93.29;101309.06;5010443;28;20041;-71
2023/09/13 09:57:21;;;;;;;18.55;11.32;;;;;;;21.54;93.44;101309.09;5013117;28;20034;-71
2023/09/13 09:59:48;;;;;;;19.20;11.60;;;;;;;21.45;93.94;101312.25;5011173;28;20504;-71
2023/09/13 10:02:13;;;;;;;23.50;12.38;;;;;;;21.53;93.96;101311.97;5010447;28;20037;-71
2023/09/13 10:04:47;;;;;;;17.63;10.48;;;;;;;21.44;92.10;101319.34;5012952;28;20528;-71
2023/09/13 10:07:13;;;;;;;18.52;10.27;;;;;;;21.13;90.60;101320.94;5013866;28;20042;-72
2023/09/13 10:09:40;;;;;;;16.42;9.70;;;;;;;20.98;91.79;101325.72;5010341;28;20040;-71
2023/09/13 10:12:08;;;;;;;17.67;10.18;;;;;;;20.69;93.13;101320.00;5025831;28;20753;-71
2023/09/13 10:14:34;;;;;;;16.85;9.48;;;;;;;20.68;94.65;101330.75;5011069;28;20033;-70
2023/09/13 10:17:03;;;;;;;18.80;10.30;;;;;;;20.53;95.66;101331.81;5010786;28;20127;-70
2023/09/13 10:19:31;;;;;;;16.38;8.23;;;;;;;20.33;96.73;101346.88;4998943;28;20065;-71
2023/09/13 10:21:57;;;;;;;9.57;4.47;;;;;;;19.35;98.21;101365.97;5006141;28;20040;-72
2023/09/13 10:24:28;;;;;;;13.23;4.20;;;;;;;19.19;100.00;101372.38;5012831;28;20029;-74
2023/09/13 10:26:55;;;;;;;7.60;2.42;;;;;;;18.97;100.00;101374.38;5011387;28;20455;-73
2023/09/13 10:29:31;;;;;;;5.65;1.80;;;;;;;18.54;100.00;101370.13;5012282;28;20492;-74
2023/09/13 10:32:05;;;;;;;4.75;1.75;;;;;;;18.38;100.00;101379.13;5013686;28;20455;-75
2023/09/13 10:34:34;;;;;;;5.88;1.38;;;;;;;18.33;100.00;101394.66;5011524;28;20431;-73
2023/09/13 10:37:24;;;;;;;6.30;1.45;;;;;;;18.13;100.00;101388.47;5013964;28;20061;-74
2023/09/13 10:40:09;;;;;;;2.60;1.40;;;;;;;18.12;100.00;101397.31;5013349;28;20021;-73
2023/09/13 10:42:40;;;;;;;5.50;1.60;;;;;;;18.04;100.00;101408.78;5017695;28;20550;-74
2023/09/13 10:45:12;;;;;;;4.25;1.40;;;;;;;17.97;100.00;101407.91;5011454;28;20054;-73
2023/09/13 10:47:39;;;;;;;3.65;1.58;;;;;;;17.99;100.00;101411.16;5010832;28;20041;-73
2023/09/13 10:50:07;;;;;;;5.53;1.48;;;;;;;17.94;100.00;101414.34;5026962;28;20049;-73
2023/09/13 10:52:34;;;;;;;5.03;2.58;;;;;;;17.86;100.00;101409.25;5010934;28;20041;-73
2023/09/13 10:55:04;;;;;;;2.35;1.80;;;;;;;17.56;100.00;101411.19;5011057;28;20496;-72
2023/09/13 10:57:31;;;;;;;5.18;1.40;;;;;;;17.67;100.00;101414.09;5014749;28;20092;-72
2023/09/13 10:59:59;;;;;;;4.78;1.30;;;;;;;17.68;100.00;101428.84;5014354;28;20033;-72
2023/09/13 11:02:26;;;;;;;3.08;1.75;;;;;;;17.80;100.00;101433.56;5012164;28;20172;-72
2023/09/13 11:04:52;;;;;;;4.32;1.63;;;;;;;17.77;100.00;101432.16;5012982;28;20049;-73